TAP353 LPPR-GMFF
Flight info
| Callsign | TAP353 |
|---|---|
| Flight time | 1h 19m |
| Altitude | 35000 |
| Route | PESUL DCT PORTA DCT LASIB DCT TNR UM240 ATVAR DCT KEKIV DCT 34N005W DCT FES |
| Aircraft | A320/M-SDE3FGHIRWY/LB1 |
Departure
| Time | 2026-04-25 18:01 |
|---|---|
| Airport | Francisco de Sá Carneiro Airport (LPPR) |
Arrival
| Time | 2026-04-25 19:20 |
|---|---|
| Airport | Fes Saïss International Airport (GMFF) |
| Time | Latitude | Longitude | Altitude | Speed | Heading |
|---|---|---|---|---|---|
| 2026-04-25 17:35 | 41.23640 | -8.67246 | 243 ft | 0 kts | 79° |
| 2026-04-25 17:54 | 41.23639 | -8.67248 | 242 ft | 2 kts | 79° |
| 2026-04-25 17:54 | 41.23634 | -8.67282 | 242 ft | 4 kts | 77° |
| 2026-04-25 17:54 | 41.23629 | -8.67317 | 242 ft | 4 kts | 96° |
| 2026-04-25 17:54 | 41.23635 | -8.67336 | 242 ft | 1 kts | 176° |
| 2026-04-25 17:57 | 41.23614 | -8.67335 | 242 ft | 8 kts | 180° |
| 2026-04-25 17:57 | 41.23556 | -8.67366 | 239 ft | 11 kts | 206° |
| 2026-04-25 17:57 | 41.23508 | -8.67391 | 237 ft | 12 kts | 189° |
| 2026-04-25 17:58 | 41.23410 | -8.67367 | 237 ft | 10 kts | 167° |
| 2026-04-25 17:58 | 41.23348 | -8.67391 | 240 ft | 12 kts | 226° |
| 2026-04-25 17:58 | 41.23321 | -8.67512 | 235 ft | 15 kts | 259° |
| 2026-04-25 17:58 | 41.23302 | -8.67645 | 237 ft | 15 kts | 259° |
| 2026-04-25 17:59 | 41.23348 | -8.67713 | 239 ft | 10 kts | 322° |
| 2026-04-25 17:59 | 41.23412 | -8.67759 | 237 ft | 11 kts | 3° |
| 2026-04-25 17:59 | 41.23433 | -8.67764 | 236 ft | 0 kts | 348° |
| 2026-04-25 18:00 | 41.23443 | -8.67766 | 238 ft | 7 kts | 348° |
| 2026-04-25 18:00 | 41.23719 | -8.67841 | 226 ft | 78 kts | 349° |
| 2026-04-25 18:00 | 41.24454 | -8.68036 | 212 ft | 135 kts | 349° |
| 2026-04-25 18:01 | 41.25493 | -8.68308 | 484 ft | 158 kts | 347° |
| 2026-04-25 18:01 | 41.26579 | -8.68589 | 1201 ft | 162 kts | 349° |
| 2026-04-25 18:01 | 41.27710 | -8.68883 | 1877 ft | 169 kts | 348° |
| 2026-04-25 18:01 | 41.28839 | -8.69188 | 2509 ft | 166 kts | 348° |
| 2026-04-25 18:02 | 41.30041 | -8.69507 | 2874 ft | 187 kts | 348° |
| 2026-04-25 18:02 | 41.31373 | -8.69858 | 3141 ft | 211 kts | 348° |
| 2026-04-25 18:02 | 41.32893 | -8.70257 | 3512 ft | 235 kts | 349° |
| 2026-04-25 18:02 | 41.34576 | -8.70694 | 4033 ft | 255 kts | 349° |
| 2026-04-25 18:03 | 41.36356 | -8.71158 | 4785 ft | 265 kts | 349° |
| 2026-04-25 18:03 | 41.38190 | -8.71639 | 5591 ft | 272 kts | 350° |
| 2026-04-25 18:03 | 41.40088 | -8.71673 | 6403 ft | 277 kts | 14° |
| 2026-04-25 18:03 | 41.41816 | -8.70558 | 7207 ft | 279 kts | 42° |
| 2026-04-25 18:04 | 41.42977 | -8.68510 | 8044 ft | 280 kts | 69° |
| 2026-04-25 18:04 | 41.43456 | -8.66003 | 8923 ft | 281 kts | 79° |
| 2026-04-25 18:04 | 41.43677 | -8.63409 | 9820 ft | 283 kts | 93° |
| 2026-04-25 18:04 | 41.43310 | -8.60831 | 10592 ft | 287 kts | 110° |
| 2026-04-25 18:05 | 41.42326 | -8.58417 | 10912 ft | 310 kts | 128° |
| 2026-04-25 18:05 | 41.40651 | -8.56456 | 11175 ft | 333 kts | 146° |
| 2026-04-25 18:05 | 41.38700 | -8.54794 | 11740 ft | 341 kts | 146° |
| 2026-04-25 18:05 | 41.36690 | -8.53061 | 12436 ft | 347 kts | 146° |
| 2026-04-25 18:06 | 41.34656 | -8.51297 | 13145 ft | 351 kts | 146° |
| 2026-04-25 18:06 | 41.32493 | -8.49751 | 13814 ft | 357 kts | 160° |
| 2026-04-25 18:06 | 41.30069 | -8.48948 | 14430 ft | 361 kts | 167° |
| 2026-04-25 18:06 | 41.27602 | -8.48245 | 15071 ft | 364 kts | 167° |
| 2026-04-25 18:07 | 41.25110 | -8.47545 | 15713 ft | 367 kts | 167° |
| 2026-04-25 18:07 | 41.22601 | -8.46845 | 16364 ft | 371 kts | 167° |
| 2026-04-25 18:07 | 41.20062 | -8.46137 | 16996 ft | 374 kts | 167° |
| 2026-04-25 18:07 | 41.17538 | -8.45435 | 17603 ft | 378 kts | 167° |
| 2026-04-25 18:08 | 41.14956 | -8.44715 | 18206 ft | 381 kts | 167° |
| 2026-04-25 18:08 | 41.12349 | -8.43984 | 18740 ft | 385 kts | 166° |
| 2026-04-25 18:08 | 41.09721 | -8.43244 | 19246 ft | 388 kts | 167° |
| 2026-04-25 18:08 | 41.07063 | -8.42493 | 19750 ft | 392 kts | 167° |
| 2026-04-25 18:09 | 41.04384 | -8.41738 | 20245 ft | 396 kts | 167° |
| 2026-04-25 18:09 | 41.01680 | -8.40979 | 20737 ft | 399 kts | 167° |
| 2026-04-25 18:09 | 40.98948 | -8.40215 | 21208 ft | 403 kts | 167° |
| 2026-04-25 18:09 | 40.97125 | -8.39706 | 21523 ft | 405 kts | 167° |
| 2026-04-25 18:10 | 40.93408 | -8.38674 | 22148 ft | 410 kts | 167° |
| 2026-04-25 18:10 | 40.90605 | -8.37897 | 22607 ft | 414 kts | 167° |
| 2026-04-25 18:10 | 40.87776 | -8.37111 | 23059 ft | 417 kts | 167° |
| 2026-04-25 18:10 | 40.84961 | -8.36326 | 23512 ft | 420 kts | 167° |
| 2026-04-25 18:11 | 40.82091 | -8.35523 | 23921 ft | 423 kts | 167° |
| 2026-04-25 18:11 | 40.79198 | -8.34718 | 24307 ft | 426 kts | 167° |
| 2026-04-25 18:11 | 40.76288 | -8.33908 | 24686 ft | 429 kts | 167° |
| 2026-04-25 18:11 | 40.73361 | -8.33092 | 25052 ft | 431 kts | 167° |
| 2026-04-25 18:12 | 40.70417 | -8.32273 | 25430 ft | 434 kts | 167° |
| 2026-04-25 18:12 | 40.67456 | -8.31455 | 25792 ft | 436 kts | 167° |
| 2026-04-25 18:12 | 40.64482 | -8.30637 | 26155 ft | 438 kts | 167° |
| 2026-04-25 18:12 | 40.61485 | -8.29812 | 26511 ft | 441 kts | 167° |
| 2026-04-25 18:13 | 40.58514 | -8.28994 | 26870 ft | 443 kts | 167° |
| 2026-04-25 18:13 | 40.55489 | -8.28160 | 27221 ft | 446 kts | 167° |
| 2026-04-25 18:13 | 40.52443 | -8.27319 | 27581 ft | 448 kts | 167° |
| 2026-04-25 18:14 | 40.46308 | -8.25633 | 28272 ft | 453 kts | 168° |
| 2026-04-25 18:14 | 40.43216 | -8.24789 | 28604 ft | 455 kts | 168° |
| 2026-04-25 18:14 | 40.40107 | -8.23942 | 28932 ft | 458 kts | 168° |
| 2026-04-25 18:14 | 40.36982 | -8.23086 | 29246 ft | 460 kts | 168° |
| 2026-04-25 18:15 | 40.33878 | -8.22230 | 29549 ft | 463 kts | 168° |
| 2026-04-25 18:15 | 40.30721 | -8.21360 | 29849 ft | 465 kts | 168° |
| 2026-04-25 18:15 | 40.27544 | -8.20491 | 30144 ft | 468 kts | 168° |
| 2026-04-25 18:15 | 40.24352 | -8.19619 | 30397 ft | 470 kts | 168° |
| 2026-04-25 18:16 | 40.21147 | -8.18746 | 30654 ft | 472 kts | 168° |
| 2026-04-25 18:16 | 40.17924 | -8.17870 | 30904 ft | 474 kts | 168° |
| 2026-04-25 18:16 | 40.11458 | -8.16105 | 31485 ft | 475 kts | 168° |
| 2026-04-25 18:17 | 40.08226 | -8.15222 | 31846 ft | 474 kts | 168° |
| 2026-04-25 18:17 | 40.05003 | -8.14347 | 32198 ft | 473 kts | 168° |
| 2026-04-25 18:17 | 40.01833 | -8.13490 | 32536 ft | 472 kts | 168° |
| 2026-04-25 18:17 | 39.98630 | -8.12624 | 32883 ft | 471 kts | 168° |
| 2026-04-25 18:18 | 39.95420 | -8.11758 | 33208 ft | 471 kts | 168° |
| 2026-04-25 18:18 | 39.92216 | -8.10890 | 33556 ft | 470 kts | 168° |
| 2026-04-25 18:18 | 39.89017 | -8.10025 | 33899 ft | 469 kts | 168° |
| 2026-04-25 18:18 | 39.85822 | -8.09164 | 34217 ft | 469 kts | 168° |
| 2026-04-25 18:19 | 39.82640 | -8.08308 | 34520 ft | 468 kts | 168° |
| 2026-04-25 18:19 | 39.79456 | -8.07450 | 34818 ft | 467 kts | 168° |
| 2026-04-25 18:19 | 39.76280 | -8.06592 | 35020 ft | 466 kts | 168° |
| 2026-04-25 18:20 | 39.70009 | -8.04901 | 35052 ft | 462 kts | 168° |
| 2026-04-25 18:20 | 39.63717 | -8.03217 | 35050 ft | 461 kts | 168° |
| 2026-04-25 18:21 | 39.57428 | -8.01532 | 35048 ft | 462 kts | 168° |
| 2026-04-25 18:21 | 39.51131 | -7.99846 | 35043 ft | 462 kts | 168° |
| 2026-04-25 18:22 | 39.44828 | -7.98165 | 35043 ft | 463 kts | 168° |
| 2026-04-25 18:22 | 39.38564 | -7.96500 | 35043 ft | 463 kts | 168° |
| 2026-04-25 18:23 | 39.32253 | -7.94824 | 35039 ft | 463 kts | 168° |
| 2026-04-25 18:23 | 39.25942 | -7.93144 | 35039 ft | 463 kts | 168° |
| 2026-04-25 18:24 | 39.19637 | -7.91474 | 35040 ft | 463 kts | 168° |
| 2026-04-25 18:24 | 39.13365 | -7.89816 | 35035 ft | 463 kts | 168° |
| 2026-04-25 18:25 | 39.07052 | -7.88144 | 35030 ft | 463 kts | 168° |
| 2026-04-25 18:25 | 39.00736 | -7.86476 | 35033 ft | 463 kts | 168° |
| 2026-04-25 18:26 | 38.94416 | -7.84819 | 35029 ft | 464 kts | 168° |
| 2026-04-25 18:26 | 38.88097 | -7.83174 | 35030 ft | 464 kts | 168° |
| 2026-04-25 18:27 | 38.81819 | -7.81531 | 35027 ft | 464 kts | 168° |
| 2026-04-25 18:27 | 38.75489 | -7.79869 | 35027 ft | 465 kts | 168° |
| 2026-04-25 18:28 | 38.69150 | -7.78205 | 35027 ft | 465 kts | 168° |
| 2026-04-25 18:28 | 38.62814 | -7.76547 | 35024 ft | 465 kts | 169° |
| 2026-04-25 18:29 | 38.53331 | -7.74092 | 35023 ft | 466 kts | 169° |
| 2026-04-25 18:30 | 38.40631 | -7.70804 | 35021 ft | 466 kts | 169° |
| 2026-04-25 18:30 | 38.34278 | -7.69164 | 35019 ft | 466 kts | 169° |
| 2026-04-25 18:31 | 38.27915 | -7.67523 | 35015 ft | 466 kts | 169° |
| 2026-04-25 18:31 | 38.21600 | -7.65893 | 35016 ft | 467 kts | 169° |
| 2026-04-25 18:32 | 38.15237 | -7.64250 | 35018 ft | 468 kts | 169° |
| 2026-04-25 18:32 | 38.08851 | -7.62607 | 35021 ft | 468 kts | 169° |
| 2026-04-25 18:33 | 38.02459 | -7.60978 | 35026 ft | 469 kts | 169° |
| 2026-04-25 18:33 | 37.96060 | -7.59344 | 35025 ft | 469 kts | 169° |
| 2026-04-25 18:34 | 37.89706 | -7.57721 | 35030 ft | 469 kts | 169° |
| 2026-04-25 18:34 | 37.83303 | -7.56089 | 35030 ft | 470 kts | 169° |
| 2026-04-25 18:35 | 37.76902 | -7.54464 | 35033 ft | 469 kts | 169° |
| 2026-04-25 18:35 | 37.70496 | -7.52847 | 35031 ft | 469 kts | 169° |
| 2026-04-25 18:36 | 37.64089 | -7.51230 | 35031 ft | 469 kts | 169° |
| 2026-04-25 18:36 | 37.57726 | -7.49615 | 35033 ft | 469 kts | 169° |
| 2026-04-25 18:37 | 37.51326 | -7.47979 | 35036 ft | 469 kts | 169° |
| 2026-04-25 18:37 | 37.44920 | -7.46362 | 35036 ft | 469 kts | 169° |
| 2026-04-25 18:38 | 37.38514 | -7.44754 | 35037 ft | 470 kts | 169° |
| 2026-04-25 18:38 | 37.32112 | -7.43149 | 35034 ft | 470 kts | 169° |
| 2026-04-25 18:39 | 37.25741 | -7.41559 | 35036 ft | 470 kts | 169° |
| 2026-04-25 18:39 | 37.19325 | -7.39952 | 35038 ft | 470 kts | 169° |
| 2026-04-25 18:40 | 37.13104 | -7.37458 | 35037 ft | 471 kts | 153° |
| 2026-04-25 18:40 | 37.07745 | -7.32790 | 35035 ft | 471 kts | 138° |
| 2026-04-25 18:41 | 37.02773 | -7.27438 | 35042 ft | 472 kts | 139° |
| 2026-04-25 18:41 | 36.97811 | -7.22146 | 35043 ft | 472 kts | 139° |
| 2026-04-25 18:42 | 36.93653 | -7.17717 | 35046 ft | 473 kts | 139° |
| 2026-04-25 18:42 | 36.87811 | -7.11477 | 35047 ft | 473 kts | 139° |
| 2026-04-25 18:43 | 36.82809 | -7.06144 | 35042 ft | 473 kts | 139° |
| 2026-04-25 18:43 | 36.77831 | -7.00858 | 35043 ft | 473 kts | 139° |
| 2026-04-25 18:44 | 36.72824 | -6.95541 | 35044 ft | 473 kts | 139° |
| 2026-04-25 18:44 | 36.67811 | -6.90225 | 35044 ft | 473 kts | 139° |
| 2026-04-25 18:45 | 36.62791 | -6.84912 | 35042 ft | 474 kts | 139° |
| 2026-04-25 18:45 | 36.57755 | -6.79597 | 35040 ft | 475 kts | 139° |
| 2026-04-25 18:46 | 36.52739 | -6.74320 | 35048 ft | 476 kts | 139° |
| 2026-04-25 18:46 | 36.47691 | -6.69000 | 35050 ft | 476 kts | 139° |
| 2026-04-25 18:47 | 36.42643 | -6.63691 | 35049 ft | 475 kts | 139° |
| 2026-04-25 18:47 | 36.37591 | -6.58392 | 35054 ft | 475 kts | 139° |
| 2026-04-25 18:48 | 36.32536 | -6.53108 | 35054 ft | 475 kts | 139° |
| 2026-04-25 18:48 | 36.27514 | -6.47873 | 35055 ft | 475 kts | 139° |
| 2026-04-25 18:49 | 36.22456 | -6.42600 | 35047 ft | 475 kts | 139° |
| 2026-04-25 18:49 | 36.17399 | -6.37324 | 35043 ft | 475 kts | 139° |
| 2026-04-25 18:50 | 36.12331 | -6.32061 | 35039 ft | 476 kts | 140° |
| 2026-04-25 18:50 | 36.07258 | -6.26799 | 35036 ft | 476 kts | 140° |
| 2026-04-25 18:51 | 36.03892 | -6.23317 | 35036 ft | 477 kts | 140° |
| 2026-04-25 18:51 | 35.97118 | -6.16320 | 35023 ft | 477 kts | 140° |
| 2026-04-25 18:52 | 35.92030 | -6.11058 | 35004 ft | 477 kts | 140° |
| 2026-04-25 18:52 | 35.86940 | -6.05805 | 34988 ft | 477 kts | 140° |
| 2026-04-25 18:53 | 35.81888 | -6.00604 | 34973 ft | 477 kts | 140° |
| 2026-04-25 18:53 | 35.76787 | -5.95374 | 34966 ft | 477 kts | 140° |
| 2026-04-25 18:54 | 35.71284 | -5.90854 | 34963 ft | 476 kts | 156° |
| 2026-04-25 18:54 | 35.68244 | -5.89256 | 34959 ft | 476 kts | 159° |
| 2026-04-25 18:55 | 35.62135 | -5.86129 | 34961 ft | 476 kts | 159° |
| 2026-04-25 18:55 | 35.56030 | -5.82988 | 34961 ft | 477 kts | 159° |
| 2026-04-25 18:56 | 35.49911 | -5.79848 | 34965 ft | 477 kts | 159° |
| 2026-04-25 18:56 | 35.43820 | -5.76730 | 34968 ft | 478 kts | 159° |
| 2026-04-25 18:57 | 35.37679 | -5.73594 | 34972 ft | 478 kts | 159° |
| 2026-04-25 18:57 | 35.34609 | -5.72026 | 34747 ft | 480 kts | 159° |
| 2026-04-25 18:57 | 35.31533 | -5.70457 | 34519 ft | 480 kts | 159° |
| 2026-04-25 18:58 | 35.25352 | -5.67318 | 33960 ft | 482 kts | 160° |
| 2026-04-25 18:58 | 35.19200 | -5.64198 | 32393 ft | 470 kts | 159° |
| 2026-04-25 18:58 | 35.16213 | -5.62675 | 31767 ft | 461 kts | 159° |
| 2026-04-25 18:59 | 35.10419 | -5.59723 | 30586 ft | 443 kts | 159° |
| 2026-04-25 18:59 | 35.04805 | -5.56882 | 29383 ft | 435 kts | 159° |
| 2026-04-25 19:00 | 34.99238 | -5.54084 | 28269 ft | 430 kts | 159° |
| 2026-04-25 19:00 | 34.96476 | -5.52695 | 27741 ft | 428 kts | 158° |
| 2026-04-25 19:01 | 34.91031 | -5.49944 | 26668 ft | 425 kts | 158° |
| 2026-04-25 19:01 | 34.88311 | -5.48568 | 26147 ft | 422 kts | 158° |
| 2026-04-25 19:01 | 34.85604 | -5.47203 | 25640 ft | 420 kts | 158° |
| 2026-04-25 19:01 | 34.82908 | -5.45849 | 25137 ft | 418 kts | 158° |
| 2026-04-25 19:02 | 34.77565 | -5.43167 | 24154 ft | 413 kts | 158° |
| 2026-04-25 19:02 | 34.74913 | -5.41834 | 23662 ft | 411 kts | 158° |
| 2026-04-25 19:02 | 34.72276 | -5.40508 | 23112 ft | 409 kts | 158° |
| 2026-04-25 19:03 | 34.68814 | -5.38771 | 22464 ft | 404 kts | 158° |
| 2026-04-25 19:03 | 34.64514 | -5.36619 | 21634 ft | 400 kts | 158° |
| 2026-04-25 19:03 | 34.61950 | -5.35335 | 21131 ft | 398 kts | 158° |
| 2026-04-25 19:04 | 34.56845 | -5.32792 | 20109 ft | 395 kts | 158° |
| 2026-04-25 19:04 | 34.54305 | -5.31528 | 19611 ft | 394 kts | 158° |
| 2026-04-25 19:05 | 34.49249 | -5.29005 | 18594 ft | 392 kts | 158° |
| 2026-04-25 19:05 | 34.44254 | -5.26516 | 17555 ft | 389 kts | 158° |
| 2026-04-25 19:05 | 34.41766 | -5.25276 | 17063 ft | 386 kts | 159° |
| 2026-04-25 19:06 | 34.39293 | -5.24042 | 16579 ft | 383 kts | 159° |
| 2026-04-25 19:06 | 34.34400 | -5.21604 | 15664 ft | 377 kts | 159° |
| 2026-04-25 19:06 | 34.31985 | -5.20402 | 15263 ft | 373 kts | 160° |
| 2026-04-25 19:07 | 34.28128 | -5.18497 | 14593 ft | 367 kts | 160° |
| 2026-04-25 19:07 | 34.25773 | -5.17333 | 14139 ft | 365 kts | 160° |
| 2026-04-25 19:08 | 34.21105 | -5.15021 | 13236 ft | 359 kts | 160° |
| 2026-04-25 19:08 | 34.18806 | -5.13881 | 12777 ft | 356 kts | 160° |
| 2026-04-25 19:09 | 34.12023 | -5.10534 | 11413 ft | 346 kts | 161° |
| 2026-04-25 19:09 | 34.10547 | -5.09824 | 11120 ft | 344 kts | 161° |
| 2026-04-25 19:09 | 34.05520 | -5.07434 | 10338 ft | 312 kts | 161° |
| 2026-04-25 19:10 | 34.03559 | -5.06501 | 10040 ft | 296 kts | 161° |
| 2026-04-25 19:10 | 34.01645 | -5.05658 | 9391 ft | 290 kts | 169° |
| 2026-04-25 19:10 | 33.99648 | -5.05575 | 8602 ft | 288 kts | 184° |
| 2026-04-25 19:10 | 33.97678 | -5.05330 | 8113 ft | 279 kts | 163° |
| 2026-04-25 19:11 | 33.96013 | -5.04324 | 7990 ft | 259 kts | 144° |
| 2026-04-25 19:11 | 33.94771 | -5.02863 | 7862 ft | 245 kts | 127° |
| 2026-04-25 19:11 | 33.93958 | -5.01085 | 7744 ft | 249 kts | 110° |
| 2026-04-25 19:11 | 33.93607 | -4.99052 | 7616 ft | 249 kts | 92° |
| 2026-04-25 19:12 | 33.93772 | -4.96990 | 7497 ft | 249 kts | 75° |
| 2026-04-25 19:12 | 33.94246 | -4.94988 | 7379 ft | 248 kts | 74° |
| 2026-04-25 19:12 | 33.94713 | -4.93004 | 7256 ft | 247 kts | 74° |
| 2026-04-25 19:12 | 33.95177 | -4.91021 | 7134 ft | 245 kts | 74° |
| 2026-04-25 19:13 | 33.95639 | -4.89037 | 6829 ft | 248 kts | 74° |
| 2026-04-25 19:13 | 33.96109 | -4.87024 | 6373 ft | 251 kts | 74° |
| 2026-04-25 19:13 | 33.96572 | -4.85039 | 6188 ft | 238 kts | 74° |
| 2026-04-25 19:13 | 33.96999 | -4.83206 | 6103 ft | 224 kts | 74° |
| 2026-04-25 19:14 | 33.97409 | -4.81440 | 5997 ft | 212 kts | 74° |
| 2026-04-25 19:14 | 33.97543 | -4.80863 | 5979 ft | 212 kts | 74° |
| 2026-04-25 19:14 | 33.98199 | -4.77994 | 5870 ft | 214 kts | 78° |
| 2026-04-25 19:14 | 33.98154 | -4.76218 | 5722 ft | 215 kts | 108° |
| 2026-04-25 19:15 | 33.97359 | -4.74710 | 5576 ft | 217 kts | 137° |
| 2026-04-25 19:15 | 33.96034 | -4.73881 | 5380 ft | 217 kts | 168° |
| 2026-04-25 19:15 | 33.94551 | -4.73984 | 5274 ft | 214 kts | 199° |
| 2026-04-25 19:15 | 33.93330 | -4.74958 | 5206 ft | 209 kts | 229° |
| 2026-04-25 19:16 | 33.92695 | -4.76437 | 5044 ft | 200 kts | 258° |
| 2026-04-25 19:16 | 33.92629 | -4.78074 | 4820 ft | 194 kts | 271° |
| 2026-04-25 19:16 | 33.92641 | -4.79687 | 4569 ft | 192 kts | 272° |
| 2026-04-25 19:16 | 33.92651 | -4.81290 | 4318 ft | 191 kts | 271° |
| 2026-04-25 19:17 | 33.92660 | -4.82879 | 4082 ft | 188 kts | 271° |
| 2026-04-25 19:17 | 33.92667 | -4.84387 | 3842 ft | 172 kts | 272° |
| 2026-04-25 19:17 | 33.92674 | -4.85773 | 3618 ft | 160 kts | 271° |
| 2026-04-25 19:17 | 33.92680 | -4.87091 | 3418 ft | 155 kts | 272° |
| 2026-04-25 19:18 | 33.92688 | -4.88379 | 3219 ft | 153 kts | 273° |
| 2026-04-25 19:18 | 33.92697 | -4.89661 | 2987 ft | 153 kts | 271° |
| 2026-04-25 19:18 | 33.92719 | -4.90928 | 2777 ft | 151 kts | 273° |
| 2026-04-25 19:18 | 33.92724 | -4.92174 | 2582 ft | 150 kts | 270° |
| 2026-04-25 19:19 | 33.92714 | -4.93431 | 2359 ft | 150 kts | 271° |
| 2026-04-25 19:19 | 33.92719 | -4.94676 | 2214 ft | 148 kts | 271° |
| 2026-04-25 19:19 | 33.92725 | -4.95921 | 2036 ft | 149 kts | 271° |
| 2026-04-25 19:19 | 33.92728 | -4.96341 | 1958 ft | 148 kts | 270° |
| 2026-04-25 19:20 | 33.92732 | -4.98118 | 1888 ft | 92 kts | 270° |
| 2026-04-25 19:20 | 33.92734 | -4.98684 | 1891 ft | 43 kts | 270° |
| 2026-04-25 19:20 | 33.92736 | -4.98938 | 1889 ft | 29 kts | 271° |
| 2026-04-25 19:20 | 33.92736 | -4.99191 | 1885 ft | 31 kts | 269° |
| 2026-04-25 19:21 | 33.92767 | -4.99423 | 1883 ft | 24 kts | 318° |
| 2026-04-25 19:21 | 33.92735 | -4.99406 | 1881 ft | 17 kts | 90° |
| 2026-04-25 19:21 | 33.92736 | -4.99220 | 1884 ft | 27 kts | 90° |
| 2026-04-25 19:22 | 33.92734 | -4.98981 | 1888 ft | 25 kts | 91° |
| 2026-04-25 19:22 | 33.92734 | -4.98744 | 1883 ft | 32 kts | 89° |
| 2026-04-25 19:22 | 33.92862 | -4.98582 | 1888 ft | 15 kts | 19° |
| 2026-04-25 19:23 | 33.92929 | -4.98491 | 1888 ft | 14 kts | 39° |
| 2026-04-25 19:23 | 33.92972 | -4.98483 | 1889 ft | 0 kts | 359° |